createdAt,value
2017-12-03T00:02:10.197Z,101516.77
2017-12-03T00:04:37.737Z,101524.44
2017-12-03T00:07:05.229Z,101518.43
2017-12-03T00:09:32.698Z,101519.56
2017-12-03T00:12:00.156Z,101522.69
2017-12-03T00:14:27.664Z,101514.87
2017-12-03T00:16:55.139Z,101519.75
2017-12-03T00:19:22.684Z,101522.51
2017-12-03T00:21:50.231Z,101516.20
2017-12-03T00:24:17.730Z,101521.17
2017-12-03T00:26:45.192Z,101513.50
2017-12-03T00:29:12.660Z,101514.30
2017-12-03T00:31:40.139Z,101513.89
2017-12-03T00:34:07.598Z,101516.56
2017-12-03T00:36:35.085Z,101515.02
2017-12-03T00:39:02.556Z,101517.92
2017-12-03T00:41:30.111Z,101512.81
2017-12-03T00:43:57.638Z,101518.20
2017-12-03T00:46:25.152Z,101514.80
2017-12-03T00:48:53.489Z,101518.63
2017-12-03T00:51:20.982Z,101510.34
2017-12-03T00:53:48.431Z,101517.30
2017-12-03T00:56:15.950Z,101517.87
2017-12-03T00:58:43.538Z,101515.44
2017-12-03T01:01:11.082Z,101516.17
2017-12-03T01:03:38.629Z,101520.92
2017-12-03T01:06:06.124Z,101519.71
2017-12-03T01:08:33.599Z,101515.26
2017-12-03T01:11:01.115Z,101514.05
2017-12-03T01:13:28.669Z,101515.08
2017-12-03T01:15:56.163Z,101511.99
2017-12-03T01:18:23.615Z,101514.38
2017-12-03T01:20:51.091Z,101517.77
2017-12-03T01:23:18.564Z,101515.10
2017-12-03T01:25:46.015Z,101511.00
2017-12-03T01:28:13.499Z,101512.17
2017-12-03T01:30:40.993Z,101511.20
2017-12-03T01:33:08.481Z,101513.62
2017-12-03T01:35:35.941Z,101518.27
2017-12-03T01:38:03.424Z,101517.72
2017-12-03T01:40:30.883Z,101522.00
2017-12-03T01:42:58.457Z,101530.26
2017-12-03T01:45:25.948Z,101530.36
2017-12-03T01:47:53.444Z,101528.37
2017-12-03T01:50:20.880Z,101534.64
2017-12-03T01:52:48.375Z,101529.88
2017-12-03T01:55:15.836Z,101527.17
2017-12-03T01:57:43.312Z,101525.60
2017-12-03T02:00:10.772Z,101529.94
2017-12-03T02:02:38.281Z,101527.77
2017-12-03T02:05:05.748Z,101522.73
2017-12-03T02:07:33.190Z,101524.34
2017-12-03T02:10:00.647Z,101521.53
2017-12-03T02:12:28.137Z,101517.02
2017-12-03T02:14:55.675Z,101519.72
2017-12-03T02:17:23.908Z,101513.41
2017-12-03T02:19:51.365Z,101507.27
2017-12-03T02:22:18.868Z,101506.38
2017-12-03T02:24:46.343Z,101513.42
2017-12-03T02:27:13.785Z,101504.22
2017-12-03T02:29:41.255Z,101506.19
2017-12-03T02:32:08.711Z,101499.97
2017-12-03T02:34:36.177Z,101495.09
2017-12-03T02:37:03.632Z,101501.70
2017-12-03T02:39:31.073Z,101492.49
2017-12-03T02:41:58.582Z,101488.89
2017-12-03T02:44:26.057Z,101493.63
2017-12-03T02:46:53.541Z,101487.87
2017-12-03T02:49:21.050Z,101489.61
2017-12-03T02:51:48.510Z,101483.45
2017-12-03T02:54:15.966Z,101485.70
2017-12-03T02:56:43.443Z,101475.94
2017-12-03T02:59:10.908Z,101471.52
2017-12-03T03:01:38.471Z,101473.51
2017-12-03T03:04:05.913Z,101475.09
2017-12-03T03:06:33.386Z,101475.67
2017-12-03T03:09:00.850Z,101474.43
2017-12-03T03:11:28.394Z,101469.14
2017-12-03T03:13:55.850Z,101468.66
2017-12-03T03:16:23.303Z,101474.41
2017-12-03T03:18:50.766Z,101474.81
2017-12-03T03:21:18.325Z,101472.70
2017-12-03T03:23:45.755Z,101461.03
2017-12-03T03:26:13.187Z,101475.62
2017-12-03T03:28:40.676Z,101483.51
2017-12-03T03:31:08.107Z,101474.36
2017-12-03T03:33:35.562Z,101460.58
2017-12-03T03:36:03.000Z,101479.58
2017-12-03T03:38:30.474Z,101488.36
2017-12-03T03:40:57.925Z,101490.17
2017-12-03T03:43:25.406Z,101482.33
2017-12-03T03:45:52.861Z,101497.22
2017-12-03T03:48:20.400Z,101497.34
2017-12-03T03:50:47.829Z,101506.16
2017-12-03T03:53:15.281Z,101504.30
2017-12-03T03:55:42.722Z,101491.09
2017-12-03T03:58:10.184Z,101489.75
2017-12-03T04:00:37.622Z,101486.22
2017-12-03T04:03:05.189Z,101486.36
2017-12-03T04:05:32.741Z,101497.50
2017-12-03T04:08:00.221Z,101486.62
2017-12-03T04:10:27.683Z,101484.69
2017-12-03T04:12:55.224Z,101474.59
2017-12-03T04:15:22.685Z,101464.48
2017-12-03T04:17:50.122Z,101480.08
2017-12-03T04:20:17.567Z,101481.80
2017-12-03T04:22:45.005Z,101483.48
2017-12-03T04:25:12.455Z,101477.59
2017-12-03T04:27:39.896Z,101482.33
2017-12-03T04:30:07.373Z,101488.05
2017-12-03T04:32:34.813Z,101483.22
2017-12-03T04:35:02.265Z,101483.66
2017-12-03T04:37:29.713Z,101480.04
2017-12-03T04:39:57.303Z,101482.94
2017-12-03T04:42:24.755Z,101479.52
2017-12-03T04:44:52.216Z,101478.51
2017-12-03T04:47:19.670Z,101478.97
2017-12-03T04:49:47.143Z,101466.22
2017-12-03T04:52:14.587Z,101473.23
2017-12-03T04:54:42.026Z,101471.13
2017-12-03T04:57:09.476Z,101468.25
2017-12-03T04:59:36.923Z,101475.74
2017-12-03T05:02:04.381Z,101485.80
2017-12-03T05:04:31.869Z,101487.50
2017-12-03T05:06:59.391Z,101488.09
2017-12-03T05:09:26.837Z,101486.78
2017-12-03T05:11:54.303Z,101491.41
2017-12-03T05:14:21.742Z,101486.84
2017-12-03T05:16:49.222Z,101485.40
2017-12-03T05:19:16.673Z,101479.98
2017-12-03T05:21:44.139Z,101473.28
2017-12-03T05:24:20.300Z,101475.87
2017-12-03T05:26:47.794Z,101473.05
2017-12-03T05:29:15.232Z,101472.55
2017-12-03T05:31:42.740Z,101478.10
2017-12-03T05:34:10.304Z,101480.42
2017-12-03T05:36:37.750Z,101482.05
2017-12-03T05:39:05.205Z,101490.38
2017-12-03T05:41:32.647Z,101484.80
2017-12-03T05:44:00.105Z,101491.06
2017-12-03T05:46:27.549Z,101491.91
2017-12-03T05:48:54.998Z,101487.97
2017-12-03T05:51:22.437Z,101481.06
2017-12-03T05:53:49.941Z,101484.58
2017-12-03T05:56:17.373Z,101485.58
2017-12-03T05:58:44.838Z,101487.02
2017-12-03T06:01:12.340Z,101481.59
2017-12-03T06:03:39.750Z,101479.88
2017-12-03T06:06:07.221Z,101479.39
2017-12-03T06:08:34.685Z,101471.90
2017-12-03T06:11:02.137Z,101475.23
2017-12-03T06:13:29.573Z,101480.06
2017-12-03T06:15:57.027Z,101478.58
2017-12-03T06:18:24.463Z,101474.17
2017-12-03T06:20:51.919Z,101475.29
2017-12-03T06:23:19.350Z,101477.97
2017-12-03T06:25:46.798Z,101479.38
2017-12-03T06:28:14.242Z,101486.63
2017-12-03T06:30:41.761Z,101482.58
2017-12-03T06:33:09.208Z,101478.70
2017-12-03T06:35:36.677Z,101480.89
2017-12-03T06:38:04.155Z,101475.29
2017-12-03T06:40:31.592Z,101486.77
2017-12-03T06:42:59.055Z,101477.20
2017-12-03T06:45:26.542Z,101477.52
2017-12-03T06:47:54.021Z,101487.75
2017-12-03T06:50:21.559Z,101489.02
2017-12-03T06:52:49.014Z,101488.02
2017-12-03T06:55:16.446Z,101490.08
2017-12-03T06:57:43.899Z,101493.44
2017-12-03T07:00:11.345Z,101489.47
2017-12-03T07:02:38.786Z,101485.36
2017-12-03T07:05:06.300Z,101483.14
2017-12-03T07:07:33.747Z,101481.99
2017-12-03T07:10:01.212Z,101478.47
2017-12-03T07:12:28.669Z,101491.29
2017-12-03T07:14:56.137Z,101492.84
2017-12-03T07:17:23.567Z,101492.38
2017-12-03T07:19:51.014Z,101492.25
2017-12-03T07:22:18.446Z,101494.24
2017-12-03T07:24:45.934Z,101494.57
2017-12-03T07:27:13.370Z,101503.30
2017-12-03T07:29:40.824Z,101498.88
2017-12-03T07:32:08.291Z,101494.14
2017-12-03T07:34:35.752Z,101493.34
2017-12-03T07:37:03.198Z,101494.57
2017-12-03T07:39:30.643Z,101489.73
2017-12-03T07:41:58.106Z,101496.91
2017-12-03T07:44:25.548Z,101501.42
2017-12-03T07:46:53.006Z,101498.58
2017-12-03T07:49:20.451Z,101510.65
2017-12-03T07:51:47.906Z,101507.91
2017-12-03T07:54:15.355Z,101502.45
2017-12-03T07:56:42.921Z,101508.90
2017-12-03T07:59:10.437Z,101512.89
2017-12-03T08:01:37.909Z,101511.00
2017-12-03T08:04:05.369Z,101521.47
2017-12-03T08:06:32.866Z,101514.92
2017-12-03T08:09:00.330Z,101520.09
2017-12-03T08:11:27.857Z,101514.81
2017-12-03T08:13:55.301Z,101519.72
2017-12-03T08:16:22.797Z,101522.05
2017-12-03T08:18:50.257Z,101523.47
2017-12-03T08:21:17.753Z,101517.56
2017-12-03T08:23:45.230Z,101522.28
2017-12-03T08:26:12.679Z,101527.97
2017-12-03T08:28:40.125Z,101528.63
2017-12-03T08:31:07.553Z,101524.34
2017-12-03T08:33:35.015Z,101527.45
2017-12-03T08:36:02.461Z,101526.66
2017-12-03T08:38:29.927Z,101525.05
2017-12-03T08:40:57.365Z,101530.78
2017-12-03T08:43:24.819Z,101526.58
2017-12-03T08:45:52.272Z,101528.08
2017-12-03T08:48:19.779Z,101528.77
2017-12-03T08:50:47.240Z,101536.41
2017-12-03T08:53:14.681Z,101537.31
2017-12-03T08:55:42.167Z,101534.61
2017-12-03T08:58:09.598Z,101534.25
2017-12-03T09:00:37.056Z,101540.47
2017-12-03T09:03:04.508Z,101534.79
2017-12-03T09:05:31.978Z,101533.44
2017-12-03T09:07:59.527Z,101537.37
2017-12-03T09:10:27.023Z,101540.78
2017-12-03T09:12:54.551Z,101539.22
2017-12-03T09:15:22.053Z,101538.97
2017-12-03T09:17:49.502Z,101542.09
2017-12-03T09:20:16.975Z,101547.92
2017-12-03T09:22:44.422Z,101544.34
2017-12-03T09:25:14.801Z,101552.26
2017-12-03T09:27:42.284Z,101549.85
2017-12-03T09:30:09.802Z,101542.63
2017-12-03T09:32:37.276Z,101538.18
2017-12-03T09:35:04.723Z,101536.78
2017-12-03T09:37:32.191Z,101527.55
2017-12-03T09:39:59.664Z,101532.37
2017-12-03T09:42:27.195Z,101532.13
2017-12-03T09:44:54.630Z,101529.61
2017-12-03T09:47:22.089Z,101532.17
2017-12-03T09:49:49.555Z,101528.05
2017-12-03T09:52:17.010Z,101531.55
2017-12-03T09:54:44.477Z,101527.95
2017-12-03T09:57:12.051Z,101534.13
2017-12-03T09:59:39.515Z,101527.41
2017-12-03T10:02:07.036Z,101526.58
2017-12-03T10:04:34.481Z,101528.80
2017-12-03T10:07:01.964Z,101526.31
2017-12-03T10:09:29.410Z,101524.74
2017-12-03T10:11:56.869Z,101523.83
2017-12-03T10:14:24.363Z,101526.91
2017-12-03T10:16:51.792Z,101519.41
2017-12-03T10:19:19.264Z,101523.09
2017-12-03T10:21:46.710Z,101523.87
2017-12-03T10:24:14.175Z,101515.08
2017-12-03T10:26:41.618Z,101521.05
2017-12-03T10:29:09.081Z,101513.47
2017-12-03T10:31:36.524Z,101516.33
2017-12-03T10:34:04.009Z,101505.44
2017-12-03T10:36:31.545Z,101501.71
2017-12-03T10:38:59.016Z,101510.28
2017-12-03T10:41:26.500Z,101511.09
2017-12-03T10:43:53.967Z,101511.16
2017-12-03T10:46:21.434Z,101509.80
2017-12-03T10:48:48.912Z,101506.19
2017-12-03T10:51:16.351Z,101504.98
2017-12-03T10:53:43.829Z,101502.47
2017-12-03T10:56:11.266Z,101493.44
2017-12-03T10:58:38.716Z,101492.38
2017-12-03T11:01:06.193Z,101485.96
2017-12-03T11:03:33.637Z,101485.52
2017-12-03T11:06:01.102Z,101484.53
2017-12-03T11:08:28.554Z,101489.02
2017-12-03T11:10:56.018Z,101477.61
2017-12-03T11:13:23.457Z,101469.12
2017-12-03T11:15:50.953Z,101462.51
2017-12-03T11:18:18.400Z,101465.04
2017-12-03T11:20:45.875Z,101459.69
2017-12-03T11:23:13.427Z,101461.99
2017-12-03T11:25:40.892Z,101456.20
2017-12-03T11:28:08.349Z,101455.94
2017-12-03T11:30:35.815Z,101451.70
2017-12-03T11:33:03.269Z,101446.15
2017-12-03T11:35:30.795Z,101432.99
2017-12-03T11:37:58.230Z,101431.75
2017-12-03T11:40:25.706Z,101424.58
2017-12-03T11:42:53.142Z,101423.75
2017-12-03T11:45:20.686Z,101426.23
2017-12-03T11:47:48.182Z,101418.95
2017-12-03T11:50:15.755Z,101420.97
2017-12-03T11:52:43.216Z,101417.09
2017-12-03T11:55:10.692Z,101415.89
2017-12-03T11:57:38.137Z,101412.58
2017-12-03T12:00:05.594Z,101406.54
2017-12-03T12:02:33.053Z,101408.52
2017-12-03T12:05:00.524Z,101410.13
2017-12-03T12:07:28.042Z,101410.19
2017-12-03T12:09:55.495Z,101413.72
2017-12-03T12:12:23.132Z,101413.39
2017-12-03T12:14:50.715Z,101411.52
2017-12-03T12:17:18.192Z,101417.94
2017-12-03T12:19:45.742Z,101414.84
2017-12-03T12:22:13.229Z,101408.91
2017-12-03T12:24:40.760Z,101401.48
2017-12-03T12:27:08.254Z,101395.07
2017-12-03T12:29:35.710Z,101400.73
2017-12-03T12:32:03.178Z,101398.89
2017-12-03T12:34:30.632Z,101409.42
2017-12-03T12:36:58.090Z,101408.31
2017-12-03T12:39:25.608Z,101407.55
2017-12-03T12:41:53.074Z,101408.61
2017-12-03T12:44:20.514Z,101411.30
2017-12-03T12:46:47.972Z,101408.66
2017-12-03T12:49:15.418Z,101408.75
2017-12-03T12:51:42.874Z,101403.91
2017-12-03T12:54:10.318Z,101398.67
2017-12-03T12:56:38.166Z,101400.98
2017-12-03T12:59:05.694Z,101393.45
2017-12-03T13:01:33.224Z,101395.14
2017-12-03T13:04:00.703Z,101387.37
2017-12-03T13:06:28.162Z,101383.83
2017-12-03T13:08:55.632Z,101391.76
2017-12-03T13:11:23.079Z,101390.55
2017-12-03T13:13:50.583Z,101390.50
2017-12-03T13:16:18.025Z,101386.59
2017-12-03T13:18:45.498Z,101395.11
2017-12-03T13:21:12.940Z,101398.65
2017-12-03T13:23:40.417Z,101393.34
2017-12-03T13:26:07.861Z,101393.12
2017-12-03T13:28:35.330Z,101399.55
2017-12-03T13:31:02.765Z,101395.09
2017-12-03T13:33:30.271Z,101386.11
2017-12-03T13:35:57.790Z,101380.11
2017-12-03T13:38:25.194Z,101375.29
2017-12-03T13:40:52.645Z,101379.16
2017-12-03T13:43:20.090Z,101373.66
2017-12-03T13:45:47.558Z,101370.73
2017-12-03T13:48:15.098Z,101369.00
2017-12-03T13:50:42.566Z,101364.70
2017-12-03T13:53:10.048Z,101362.23
2017-12-03T13:55:37.575Z,101362.66
2017-12-03T13:58:05.019Z,101357.06
2017-12-03T14:00:32.506Z,101360.02
2017-12-03T14:02:59.968Z,101368.23
2017-12-03T14:08:20.405Z,101366.80
2017-12-03T14:10:47.919Z,101358.19
2017-12-03T14:13:15.363Z,101357.92
2017-12-03T14:15:42.818Z,101352.11
2017-12-03T14:18:10.282Z,101352.92
2017-12-03T14:20:37.752Z,101347.19
2017-12-03T14:23:05.248Z,101343.98
2017-12-03T14:25:32.724Z,101346.05
2017-12-03T14:28:00.190Z,101350.70
2017-12-03T14:30:27.624Z,101345.59
2017-12-03T14:32:55.094Z,101342.77
2017-12-03T14:35:22.528Z,101343.31
2017-12-03T14:37:50.004Z,101344.91
2017-12-03T14:40:17.441Z,101345.47
2017-12-03T14:42:44.909Z,101343.30
2017-12-03T14:45:12.349Z,101337.64
2017-12-03T14:47:39.833Z,101335.13
2017-12-03T14:50:07.296Z,101335.36
2017-12-03T14:52:34.763Z,101336.08
2017-12-03T14:55:02.380Z,101335.84
2017-12-03T14:57:29.822Z,101337.97
2017-12-03T14:59:57.281Z,101336.40
2017-12-03T15:02:24.717Z,101335.66
2017-12-03T15:04:52.189Z,101334.48
2017-12-03T15:07:19.621Z,101336.00
2017-12-03T15:09:47.095Z,101339.38
2017-12-03T15:12:14.623Z,101335.52
2017-12-03T15:14:42.085Z,101333.87
2017-12-03T15:17:09.538Z,101332.63
2017-12-03T15:19:37.096Z,101337.06
2017-12-03T15:22:04.551Z,101341.97
2017-12-03T15:24:32.024Z,101342.54
2017-12-03T15:26:59.579Z,101350.32
2017-12-03T15:29:27.121Z,101349.89
2017-12-03T15:31:54.572Z,101344.01
2017-12-03T15:34:22.035Z,101346.44
2017-12-03T15:36:49.502Z,101348.11
2017-12-03T15:39:17.584Z,101351.14
2017-12-03T15:41:45.060Z,101350.37
2017-12-03T15:44:12.511Z,101357.56
2017-12-03T15:46:39.996Z,101352.45
2017-12-03T15:49:07.463Z,101351.63
2017-12-03T15:51:34.918Z,101354.20
2017-12-03T15:54:02.366Z,101363.28
2017-12-03T15:56:29.834Z,101366.05
2017-12-03T15:58:57.323Z,101363.55
2017-12-03T16:01:24.789Z,101361.02
2017-12-03T16:03:52.230Z,101362.76
2017-12-03T16:06:19.800Z,101371.02
2017-12-03T16:08:47.252Z,101368.39
2017-12-03T16:11:14.701Z,101361.36
2017-12-03T16:13:42.172Z,101368.78
2017-12-03T16:16:09.672Z,101369.47
2017-12-03T16:18:37.104Z,101364.52
2017-12-03T16:21:04.683Z,101365.84
2017-12-03T16:23:32.149Z,101369.00
2017-12-03T16:25:59.612Z,101370.05
2017-12-03T16:28:27.942Z,101365.42
2017-12-03T16:30:55.345Z,101368.80
2017-12-03T16:33:22.802Z,101366.05
2017-12-03T16:35:50.257Z,101366.89
2017-12-03T16:38:17.755Z,101370.62
2017-12-03T16:40:45.192Z,101366.91
2017-12-03T16:43:12.692Z,101369.09
2017-12-03T16:45:41.045Z,101368.65
2017-12-03T16:48:08.521Z,101374.23
2017-12-03T16:50:35.962Z,101375.73
2017-12-03T16:53:03.402Z,101376.57
2017-12-03T16:55:30.867Z,101369.97
2017-12-03T16:57:58.319Z,101366.20
2017-12-03T17:00:25.781Z,101361.49
2017-12-03T17:02:53.290Z,101366.05
2017-12-03T17:05:20.799Z,101365.66
2017-12-03T17:07:48.237Z,101368.06
2017-12-03T17:10:15.709Z,101370.43
2017-12-03T17:12:43.157Z,101363.45
2017-12-03T17:15:10.629Z,101371.95
2017-12-03T17:17:38.169Z,101372.44
2017-12-03T17:20:05.654Z,101367.58
2017-12-03T17:22:33.101Z,101368.92
2017-12-03T17:25:00.562Z,101373.80
2017-12-03T17:27:28.097Z,101378.08
2017-12-03T17:29:55.561Z,101371.88
2017-12-03T17:32:23.036Z,101368.83
2017-12-03T17:34:50.620Z,101364.39
2017-12-03T17:37:18.074Z,101369.69
2017-12-03T17:39:45.599Z,101374.33
2017-12-03T17:42:13.084Z,101372.51
2017-12-03T17:44:40.534Z,101367.02
2017-12-03T17:47:08.053Z,101372.94
2017-12-03T17:49:35.494Z,101370.76
2017-12-03T17:52:02.961Z,101375.96
2017-12-03T17:54:30.408Z,101376.81
2017-12-03T17:56:57.869Z,101376.36
2017-12-03T17:59:25.326Z,101373.78
2017-12-03T18:01:52.813Z,101377.85
2017-12-03T18:04:20.294Z,101379.83
2017-12-03T18:06:47.764Z,101376.70
2017-12-03T18:09:15.206Z,101375.89
2017-12-03T18:11:42.683Z,101372.02
2017-12-03T18:14:10.173Z,101389.98
2017-12-03T18:16:37.620Z,101381.42
2017-12-03T18:19:05.080Z,101382.13
2017-12-03T18:21:32.517Z,101383.50
2017-12-03T18:23:59.996Z,101390.73
2017-12-03T18:26:27.472Z,101386.72
2017-12-03T18:28:54.964Z,101385.16
2017-12-03T18:31:22.423Z,101387.96
2017-12-03T18:33:49.923Z,101387.76
2017-12-03T18:36:17.373Z,101388.90
2017-12-03T18:38:44.849Z,101391.09
2017-12-03T18:41:12.296Z,101395.30
2017-12-03T18:43:39.772Z,101390.44
2017-12-03T18:46:07.259Z,101400.08
2017-12-03T18:48:34.721Z,101394.89
2017-12-03T18:51:02.193Z,101402.77
2017-12-03T18:53:29.665Z,101398.97
2017-12-03T18:55:57.115Z,101398.58
2017-12-03T18:58:24.563Z,101393.63
2017-12-03T19:00:52.031Z,101396.66
2017-12-03T19:03:19.506Z,101394.89
2017-12-03T19:05:46.962Z,101400.47
2017-12-03T19:08:14.612Z,101409.42
2017-12-03T19:10:42.103Z,101411.64
2017-12-03T19:13:09.555Z,101422.65
2017-12-03T19:15:37.024Z,101416.21
2017-12-03T19:18:04.470Z,101413.56
2017-12-03T19:20:32.029Z,101408.06
2017-12-03T19:22:59.580Z,101407.55
2017-12-03T19:25:27.377Z,101405.80
2017-12-03T19:27:54.837Z,101403.53
2017-12-03T19:30:22.374Z,101407.91
2017-12-03T19:32:49.806Z,101409.91
2017-12-03T19:35:17.241Z,101405.36
2017-12-03T19:37:44.744Z,101390.52
2017-12-03T19:40:12.223Z,101399.50
2017-12-03T19:42:39.750Z,101402.92
2017-12-03T19:45:07.933Z,101408.05
2017-12-03T19:47:35.502Z,101407.75
2017-12-03T19:50:03.040Z,101409.16
2017-12-03T19:52:30.505Z,101409.31
2017-12-03T19:54:57.950Z,101419.33
2017-12-03T19:57:26.261Z,101421.09
2017-12-03T19:59:53.946Z,101411.67
2017-12-03T20:02:21.450Z,101415.23
2017-12-03T20:04:48.886Z,101418.58
2017-12-03T20:07:16.349Z,101422.29
2017-12-03T20:09:43.799Z,101418.72
2017-12-03T20:12:14.010Z,101421.87
2017-12-03T20:14:41.496Z,101416.08
2017-12-03T20:17:09.066Z,101414.03
2017-12-03T20:19:36.506Z,101414.05
2017-12-03T20:22:04.071Z,101407.80
2017-12-03T20:24:31.559Z,101411.23
2017-12-03T20:26:59.083Z,101420.32
2017-12-03T20:29:26.551Z,101415.48
2017-12-03T20:31:53.994Z,101423.50
2017-12-03T20:34:21.460Z,101431.27
2017-12-03T20:36:48.918Z,101417.79
2017-12-03T20:39:16.388Z,101420.72
2017-12-03T20:41:43.853Z,101430.33
2017-12-03T20:44:11.343Z,101432.26
2017-12-03T20:46:38.803Z,101437.48
2017-12-03T20:49:06.275Z,101457.06
2017-12-03T20:51:33.748Z,101453.04
2017-12-03T20:54:01.980Z,101459.19
2017-12-03T20:56:29.443Z,101458.23
2017-12-03T20:58:56.943Z,101459.19
2017-12-03T21:01:24.393Z,101453.05
2017-12-03T21:03:51.854Z,101462.12
2017-12-03T21:06:19.323Z,101450.26
2017-12-03T21:08:46.795Z,101443.31
2017-12-03T21:11:14.318Z,101446.09
2017-12-03T21:13:41.793Z,101445.72
2017-12-03T21:16:09.368Z,101429.73
2017-12-03T21:18:36.817Z,101425.90
2017-12-03T21:21:04.360Z,101425.90
2017-12-03T21:23:31.841Z,101423.49
2017-12-03T21:25:59.299Z,101425.64
2017-12-03T21:28:26.764Z,101438.34
2017-12-03T21:30:54.240Z,101432.22
2017-12-03T21:33:21.689Z,101449.17
2017-12-03T21:35:49.148Z,101447.75
2017-12-03T21:38:16.655Z,101443.93
2017-12-03T21:40:44.201Z,101441.98
2017-12-03T21:43:11.634Z,101439.88
2017-12-03T21:45:39.108Z,101443.53
2017-12-03T21:48:06.556Z,101445.27
2017-12-03T21:50:34.018Z,101446.38
2017-12-03T21:53:01.472Z,101454.75
2017-12-03T21:55:28.930Z,101466.91
2017-12-03T21:57:56.369Z,101467.77
2017-12-03T22:00:23.835Z,101467.75
2017-12-03T22:02:51.316Z,101463.75
2017-12-03T22:05:18.757Z,101471.34
2017-12-03T22:07:46.235Z,101473.52
2017-12-03T22:10:13.695Z,101466.44
2017-12-03T22:12:41.154Z,101473.23
2017-12-03T22:15:08.603Z,101474.55
2017-12-03T22:17:36.077Z,101480.14
2017-12-03T22:20:03.622Z,101481.64
2017-12-03T22:22:31.085Z,101487.11
2017-12-03T22:24:58.579Z,101482.22
2017-12-03T22:27:26.060Z,101479.84
2017-12-03T22:29:53.553Z,101476.49
2017-12-03T22:32:21.020Z,101482.77
2017-12-03T22:34:48.571Z,101492.77
2017-12-03T22:37:16.045Z,101490.14
2017-12-03T22:39:43.569Z,101488.90
2017-12-03T22:42:11.231Z,101483.98
2017-12-03T22:44:38.785Z,101488.89
2017-12-03T22:47:06.221Z,101481.45
2017-12-03T22:49:33.678Z,101497.46
2017-12-03T22:52:01.271Z,101505.91
2017-12-03T22:54:28.729Z,101499.25
2017-12-03T22:56:56.178Z,101503.97
2017-12-03T22:59:23.644Z,101505.02
2017-12-03T23:01:51.090Z,101501.89
2017-12-03T23:04:18.577Z,101504.56
2017-12-03T23:06:46.024Z,101503.22
2017-12-03T23:09:13.558Z,101505.61
2017-12-03T23:11:41.006Z,101511.30
2017-12-03T23:14:08.457Z,101504.84
2017-12-03T23:16:35.941Z,101508.86
2017-12-03T23:19:03.407Z,101515.11
2017-12-03T23:21:30.859Z,101512.14
2017-12-03T23:23:58.315Z,101513.27
2017-12-03T23:26:25.769Z,101509.34
2017-12-03T23:28:53.262Z,101509.80
2017-12-03T23:31:20.722Z,101514.66
2017-12-03T23:33:48.173Z,101515.81
2017-12-03T23:36:15.639Z,101516.62
2017-12-03T23:38:43.077Z,101521.67
2017-12-03T23:41:10.544Z,101524.62
2017-12-03T23:43:37.974Z,101523.33
2017-12-03T23:46:05.443Z,101525.03
2017-12-03T23:48:32.879Z,101516.14
2017-12-03T23:51:00.354Z,101523.97
2017-12-03T23:53:27.804Z,101530.02
2017-12-03T23:55:55.341Z,101528.45
2017-12-03T23:58:22.794Z,101522.67
